Talulah Ruby 2 — 2CIQ9 — position and weather

sailwx.info

Track history (hours):
 
Tides and Currents Weather Stations Pressure Air Temp Water Temp Dewpoint Dewpoint Depression Visibility Wind Speed Wind Dir Waves Ship Positions

Talulah Ruby 2

Last reported at 2017-Nov-19 14:42 UTC. Time now 2017-Nov-21 13:35 UTC.
Position N 28°00' W 015°21'.

Type: Sailing vessel. MMSI: 235080249.

Date/timePositionNaut miles runAvg speedWind from/ knotsBaromVisibWave heightAir tempDewpointWater temp
2017-Nov-19 14:42N 28°00' W 015°21'2 5.2
2017-Nov-19 14:23N 28°02' W 015°22'2 5.3
2017-Nov-19 13:55N 28°04' W 015°23'3 4.9
2017-Nov-19 13:22N 28°06' W 015°24'1 2.3
2017-Nov-19 12:59N 28°07' W 015°25'1 1.5
2017-Nov-19 12:30N 28°07' W 015°25'  
2017-Nov-14 17:06N 28°08' W 015°26'0 0.0
2017-Nov-14 16:51N 28°08' W 015°26'0 0.0
2017-Nov-14 16:30N 28°08' W 015°26'1 2.8
2017-Nov-14 16:00N 28°07' W 015°24'1 1.8
2017-Nov-14 15:30N 28°06' W 015°23'1 3.0
2017-Nov-14 15:00N 28°07' W 015°25'0 0.9
2017-Nov-14 14:30N 28°07' W 015°25'0 0.4
2017-Nov-14 13:59N 28°08' W 015°25'0 0.3
2017-Nov-14 13:04N 28°08' W 015°26'0 0.0
2017-Nov-14 06:58N 28°08' W 015°26'0 0.0
2017-Nov-14 06:13N 28°08' W 015°26'0 0.0
2017-Nov-14 01:43N 28°08' W 015°26'0 0.0
2017-Nov-12 03:50N 28°08' W 015°26'0 0.0
2017-Nov-10 05:39N 28°08' W 015°26'0 0.0
2017-Nov-10 04:21N 28°08' W 015°26'0 0.0
2017-Nov-10 03:51N 28°08' W 015°26'0 0.0
2017-Nov-10 03:24N 28°08' W 015°26'0 0.0
2017-Nov-10 02:39N 28°08' W 015°26'0 0.0
2017-Nov-10 01:19N 28°08' W 015°26'0 0.0
2017-Nov-10 00:49N 28°08' W 015°26'0 0.0
2017-Nov-10 00:25N 28°08' W 015°26'0 0.0
2017-Nov-09 23:51N 28°08' W 015°26'0 0.0
2017-Nov-09 22:18N 28°08' W 015°26'0 0.0
2017-Nov-09 19:36N 28°08' W 015°26'0 0.0
2017-Nov-09 19:27N 28°08' W 015°26'0 0.0
2017-Nov-09 18:09N 28°08' W 015°26'0 0.0
2017-Nov-09 17:42N 28°08' W 015°26'0 0.0
2017-Nov-09 17:15N 28°08' W 015°26'0 0.0
2017-Nov-09 16:57N 28°08' W 015°26'0 0.0
2017-Nov-09 16:29N 28°08' W 015°26'  
Track history (hours):
 
Tides and Currents Weather Stations Pressure Air Temp Water Temp Dewpoint Dewpoint Depression Visibility Wind Speed Wind Dir Waves Ship Positions

Talulah Ruby 2

Last reported at 2017-Nov-19 14:42 UTC. Time now 2017-Nov-21 13:35 UTC.
Position N 28°00' W 015°21'.

Type: Sailing vessel. MMSI: 235080249.

Date/timePositionNaut miles runAvg speedWind from/ knotsBaromVisibWave heightAir tempDewpointWater temp
2017-Nov-19 14:42N 28°00' W 015°21'2 5.2
2017-Nov-19 14:23N 28°02' W 015°22'2 5.3
2017-Nov-19 13:55N 28°04' W 015°23'3 4.9
2017-Nov-19 13:22N 28°06' W 015°24'1 2.3
2017-Nov-19 12:59N 28°07' W 015°25'1 1.5
2017-Nov-19 12:30N 28°07' W 015°25'  
2017-Nov-14 17:06N 28°08' W 015°26'0 0.0
2017-Nov-14 16:51N 28°08' W 015°26'0 0.0
2017-Nov-14 16:30N 28°08' W 015°26'1 2.8
2017-Nov-14 16:00N 28°07' W 015°24'1 1.8
2017-Nov-14 15:30N 28°06' W 015°23'1 3.0
2017-Nov-14 15:00N 28°07' W 015°25'0 0.9
2017-Nov-14 14:30N 28°07' W 015°25'0 0.4
2017-Nov-14 13:59N 28°08' W 015°25'0 0.3
2017-Nov-14 13:04N 28°08' W 015°26'0 0.0
2017-Nov-14 06:58N 28°08' W 015°26'0 0.0
2017-Nov-14 06:13N 28°08' W 015°26'0 0.0
2017-Nov-14 01:43N 28°08' W 015°26'0 0.0
2017-Nov-12 03:50N 28°08' W 015°26'0 0.0
2017-Nov-10 05:39N 28°08' W 015°26'0 0.0
2017-Nov-10 04:21N 28°08' W 015°26'0 0.0
2017-Nov-10 03:51N 28°08' W 015°26'0 0.0
2017-Nov-10 03:24N 28°08' W 015°26'0 0.0
2017-Nov-10 02:39N 28°08' W 015°26'0 0.0
2017-Nov-10 01:19N 28°08' W 015°26'0 0.0
2017-Nov-10 00:49N 28°08' W 015°26'0 0.0
2017-Nov-10 00:25N 28°08' W 015°26'0 0.0
2017-Nov-09 23:51N 28°08' W 015°26'0 0.0
2017-Nov-09 22:18N 28°08' W 015°26'0 0.0
2017-Nov-09 19:36N 28°08' W 015°26'0 0.0
2017-Nov-09 19:27N 28°08' W 015°26'0 0.0
2017-Nov-09 18:09N 28°08' W 015°26'0 0.0
2017-Nov-09 17:42N 28°08' W 015°26'0 0.0
2017-Nov-09 17:15N 28°08' W 015°26'0 0.0
2017-Nov-09 16:57N 28°08' W 015°26'0 0.0
2017-Nov-09 16:29N 28°08' W 015°26'  

Dump ship's entire track history